createdAt,value
2018-02-03T00:00:05.788Z,51.40
2018-02-03T00:02:33.224Z,51.60
2018-02-03T00:05:00.739Z,51.80
2018-02-03T00:07:28.185Z,51.20
2018-02-03T00:09:55.614Z,51.50
2018-02-03T00:12:23.071Z,51.90
2018-02-03T00:14:50.507Z,52.40
2018-02-03T00:17:17.941Z,52.90
2018-02-03T00:19:45.371Z,52.90
2018-02-03T00:22:13.563Z,53.20
2018-02-03T00:24:41.775Z,54.40
2018-02-03T00:27:09.195Z,53.80
2018-02-03T00:29:36.634Z,53.40
2018-02-03T00:32:04.071Z,53.50
2018-02-03T00:34:31.518Z,53.30
2018-02-03T00:36:58.967Z,53.20
2018-02-03T00:39:26.416Z,53.40
2018-02-03T00:41:53.858Z,53.70
2018-02-03T00:44:21.282Z,53.80
2018-02-03T00:46:49.474Z,53.90
2018-02-03T00:49:16.912Z,53.90
2018-02-03T00:51:45.099Z,53.70
2018-02-03T00:54:12.583Z,53.60
2018-02-03T00:56:39.991Z,54.00
2018-02-03T00:59:08.216Z,53.60
2018-02-03T01:01:35.631Z,53.60
2018-02-03T01:04:03.079Z,53.10
2018-02-03T01:06:30.516Z,53.40
2018-02-03T01:08:57.999Z,53.50
2018-02-03T01:11:25.459Z,53.70
2018-02-03T01:13:52.941Z,53.40
2018-02-03T01:16:20.327Z,53.60
2018-02-03T01:18:47.747Z,53.80
2018-02-03T01:21:15.199Z,53.40
2018-02-03T01:23:42.631Z,53.50
2018-02-03T01:26:10.852Z,53.20
2018-02-03T01:28:38.280Z,53.10
2018-02-03T01:31:05.719Z,53.60
2018-02-03T01:33:33.931Z,53.90
2018-02-03T01:36:01.355Z,53.80
2018-02-03T01:38:28.783Z,53.70
2018-02-03T01:40:56.220Z,53.80
2018-02-03T01:43:23.671Z,54.00
2018-02-03T01:45:51.083Z,54.00
2018-02-03T01:48:18.536Z,54.20
2018-02-03T01:50:45.967Z,54.10
2018-02-03T01:53:13.446Z,54.20
2018-02-03T01:55:40.901Z,54.10
2018-02-03T01:58:08.347Z,54.00
2018-02-03T02:00:35.783Z,53.90
2018-02-03T02:03:03.209Z,54.00
2018-02-03T02:05:30.643Z,54.30
2018-02-03T02:07:58.071Z,53.90
2018-02-03T02:10:25.512Z,54.40
2018-02-03T02:12:52.959Z,54.00
2018-02-03T02:15:20.582Z,54.60
2018-02-03T02:17:48.019Z,54.50
2018-02-03T02:20:15.455Z,54.50
2018-02-03T02:22:42.888Z,54.40
2018-02-03T02:25:10.342Z,54.30
2018-02-03T02:27:37.763Z,54.00
2018-02-03T02:30:05.972Z,54.40
2018-02-03T02:32:33.391Z,54.40
2018-02-03T02:35:01.597Z,54.50
2018-02-03T02:37:29.222Z,54.40
2018-02-03T02:39:56.658Z,54.50
2018-02-03T02:42:24.110Z,54.80
2018-02-03T02:44:51.564Z,54.70
2018-02-03T02:47:18.994Z,54.70
2018-02-03T02:49:46.436Z,54.80
2018-02-03T02:52:13.880Z,54.90
2018-02-03T02:54:42.079Z,54.70
2018-02-03T02:57:09.515Z,54.60
2018-02-03T02:59:36.951Z,54.70
2018-02-03T03:02:04.383Z,54.70
2018-02-03T03:04:31.818Z,54.80
2018-02-03T03:06:59.270Z,55.70
2018-02-03T03:09:26.859Z,55.10
2018-02-03T03:11:54.311Z,54.80
2018-02-03T03:14:21.767Z,54.20
2018-02-03T03:16:49.195Z,54.20
2018-02-03T03:19:16.613Z,54.40
2018-02-03T03:21:44.055Z,54.10
2018-02-03T03:24:11.747Z,54.70
2018-02-03T03:26:39.190Z,54.70
2018-02-03T03:29:07.378Z,55.20
2018-02-03T03:31:34.816Z,55.10
2018-02-03T03:34:02.246Z,54.70
2018-02-03T03:36:29.697Z,55.30
2018-02-03T03:38:57.135Z,55.40
2018-02-03T03:41:24.566Z,56.00
2018-02-03T03:43:52.103Z,55.70
2018-02-03T03:46:19.550Z,56.20
2018-02-03T03:48:46.980Z,56.00
2018-02-03T03:51:14.438Z,55.80
2018-02-03T03:53:41.899Z,55.70
2018-02-03T03:56:09.356Z,55.60
2018-02-03T03:58:36.792Z,55.60
2018-02-03T04:01:04.271Z,55.50
2018-02-03T04:03:31.674Z,55.70
2018-02-03T04:05:59.230Z,56.40
2018-02-03T04:08:26.651Z,56.80
2018-02-03T04:10:54.099Z,56.50
2018-02-03T04:13:21.556Z,56.70
2018-02-03T04:15:49.014Z,56.70
2018-02-03T04:18:16.427Z,56.60
2018-02-03T04:20:43.869Z,56.80
2018-02-03T04:23:11.286Z,56.90
2018-02-03T04:25:38.727Z,56.90
2018-02-03T04:28:06.165Z,57.10
2018-02-03T04:30:33.596Z,57.40
2018-02-03T04:33:01.034Z,57.50
2018-02-03T04:35:28.469Z,57.60
2018-02-03T04:37:55.926Z,57.60
2018-02-03T04:40:23.376Z,58.00
2018-02-03T04:42:50.827Z,57.90
2018-02-03T04:45:18.272Z,57.50
2018-02-03T04:47:45.717Z,57.50
2018-02-03T04:50:13.162Z,57.40
2018-02-03T04:52:40.606Z,57.50
2018-02-03T04:55:08.034Z,58.00
2018-02-03T04:57:35.481Z,58.40
2018-02-03T05:00:02.903Z,58.30
2018-02-03T05:02:30.341Z,58.00
2018-02-03T05:04:57.787Z,57.70
2018-02-03T05:07:25.227Z,57.90
2018-02-03T05:09:53.419Z,57.10
2018-02-03T05:12:20.867Z,57.30
2018-02-03T05:14:48.298Z,57.50
2018-02-03T05:17:15.739Z,57.30
2018-02-03T05:19:43.179Z,57.60
2018-02-03T05:22:10.627Z,57.40
2018-02-03T05:24:38.067Z,57.30
2018-02-03T05:27:05.499Z,58.00
2018-02-03T05:29:33.710Z,58.30
2018-02-03T05:32:01.149Z,58.30
2018-02-03T05:34:29.338Z,58.70
2018-02-03T05:36:56.796Z,58.70
2018-02-03T05:39:24.219Z,58.70
2018-02-03T05:41:51.667Z,58.90
2018-02-03T05:44:19.674Z,58.70
2018-02-03T05:46:47.126Z,59.20
2018-02-03T05:49:14.551Z,59.10
2018-02-03T05:51:42.000Z,59.90
2018-02-03T05:54:09.438Z,60.00
2018-02-03T05:56:36.883Z,60.00
2018-02-03T05:59:04.329Z,60.10
2018-02-03T06:01:31.768Z,60.60
2018-02-03T06:03:59.215Z,60.20
2018-02-03T06:06:26.648Z,60.80
2018-02-03T06:08:54.098Z,61.40
2018-02-03T06:11:21.554Z,61.50
2018-02-03T06:13:49.003Z,61.60
2018-02-03T06:16:16.599Z,61.30
2018-02-03T06:18:44.035Z,61.80
2018-02-03T06:21:11.481Z,60.80
2018-02-03T06:23:38.924Z,60.50
2018-02-03T06:26:06.376Z,60.50
2018-02-03T06:28:33.828Z,60.50
2018-02-03T06:31:01.275Z,60.90
2018-02-03T06:33:28.723Z,60.90
2018-02-03T06:35:56.186Z,60.30
2018-02-03T06:38:23.707Z,60.80
2018-02-03T06:40:51.155Z,61.20
2018-02-03T06:43:18.587Z,61.10
2018-02-03T06:45:46.047Z,61.20
2018-02-03T06:48:13.484Z,61.30
2018-02-03T06:50:40.939Z,61.60
2018-02-03T06:53:08.371Z,60.70
2018-02-03T06:55:35.820Z,60.00
2018-02-03T06:58:03.934Z,59.60
2018-02-03T07:00:31.423Z,59.90
2018-02-03T07:02:58.879Z,59.70
2018-02-03T07:05:26.310Z,59.40
2018-02-03T07:07:53.774Z,58.70
2018-02-03T07:10:21.209Z,58.60
2018-02-03T07:12:48.674Z,58.50
2018-02-03T07:15:16.104Z,58.70
2018-02-03T07:17:43.556Z,59.00
2018-02-03T07:20:11.033Z,59.10
2018-02-03T07:22:39.002Z,58.50
2018-02-03T07:25:06.458Z,58.90
2018-02-03T07:27:33.876Z,59.20
2018-02-03T07:30:02.099Z,59.60
2018-02-03T07:32:29.528Z,59.50
2018-02-03T07:34:56.959Z,59.70
2018-02-03T07:37:25.174Z,59.70
2018-02-03T07:39:52.608Z,59.60
2018-02-03T07:42:20.047Z,59.50
2018-02-03T07:44:47.494Z,59.40
2018-02-03T07:47:14.927Z,59.60
2018-02-03T07:49:42.367Z,59.50
2018-02-03T07:52:09.804Z,59.30
2018-02-03T07:54:37.243Z,60.00
2018-02-03T07:57:05.446Z,60.40
2018-02-03T07:59:32.895Z,60.20
2018-02-03T08:02:00.350Z,61.00
2018-02-03T08:04:27.795Z,62.60
2018-02-03T08:06:55.243Z,65.20
2018-02-03T08:09:22.695Z,67.10
2018-02-03T08:11:50.129Z,68.20
2018-02-03T08:14:17.578Z,68.40
2018-02-03T08:16:45.034Z,68.20
2018-02-03T08:19:12.491Z,68.90
2018-02-03T08:21:39.951Z,68.50
2018-02-03T08:24:07.406Z,68.20
2018-02-03T08:26:34.855Z,76.10
2018-02-03T08:29:03.611Z,71.30
2018-02-03T08:31:31.069Z,74.00
2018-02-03T08:33:58.495Z,71.60
2018-02-03T08:36:25.943Z,72.20
2018-02-03T08:38:53.407Z,72.30
2018-02-03T08:41:20.863Z,70.30
2018-02-03T08:43:48.308Z,69.20
2018-02-03T08:46:15.761Z,67.60
2018-02-03T08:48:43.208Z,66.70
2018-02-03T08:51:10.757Z,65.60
2018-02-03T08:53:38.208Z,65.00
2018-02-03T08:56:05.654Z,64.70
2018-02-03T08:58:33.112Z,65.30
2018-02-03T09:01:00.568Z,65.80
2018-02-03T09:03:28.019Z,64.90
2018-02-03T09:05:55.466Z,64.90
2018-02-03T09:08:22.920Z,64.00
2018-02-03T09:10:50.368Z,64.10
2018-02-03T09:13:17.811Z,64.10
2018-02-03T09:15:46.056Z,64.10
2018-02-03T09:18:13.491Z,64.00
2018-02-03T09:20:40.926Z,64.10
2018-02-03T09:23:08.366Z,64.30
2018-02-03T09:25:35.799Z,62.80
2018-02-03T09:28:03.258Z,62.60
2018-02-03T09:30:30.699Z,62.50
2018-02-03T09:32:58.152Z,61.30
2018-02-03T09:35:25.627Z,60.90
2018-02-03T09:37:53.057Z,61.10
2018-02-03T09:40:20.512Z,59.80
2018-02-03T09:42:47.963Z,59.90
2018-02-03T09:45:15.411Z,59.80
2018-02-03T09:47:42.853Z,59.80
2018-02-03T09:50:10.305Z,59.70
2018-02-03T09:52:37.732Z,59.80
2018-02-03T09:55:05.186Z,60.40
2018-02-03T09:57:32.658Z,60.40
2018-02-03T10:00:00.108Z,59.90
2018-02-03T10:02:27.556Z,59.80
2018-02-03T10:04:54.978Z,59.90
2018-02-03T10:07:22.424Z,59.70
2018-02-03T10:09:50.183Z,59.70
2018-02-03T10:12:17.587Z,60.00
2018-02-03T10:14:45.047Z,60.40
2018-02-03T10:17:12.481Z,60.20
2018-02-03T10:19:40.067Z,59.80
2018-02-03T10:22:07.520Z,59.30
2018-02-03T10:24:34.953Z,60.10
2018-02-03T10:27:02.372Z,59.90
2018-02-03T10:29:29.815Z,58.90
2018-02-03T10:31:57.246Z,58.80
2018-02-03T10:34:24.695Z,59.10
2018-02-03T10:36:52.114Z,58.50
2018-02-03T10:39:19.551Z,57.80
2018-02-03T10:41:46.995Z,58.20
2018-02-03T10:44:14.435Z,57.00
2018-02-03T10:46:41.871Z,57.10
2018-02-03T10:49:09.306Z,57.10
2018-02-03T10:51:36.726Z,56.50
2018-02-03T10:54:04.142Z,56.20
2018-02-03T10:56:31.664Z,56.20
2018-02-03T10:58:59.070Z,55.80
2018-02-03T11:01:26.506Z,56.00
2018-02-03T11:03:53.986Z,56.30
2018-02-03T11:06:21.441Z,56.40
2018-02-03T11:08:48.873Z,56.50
2018-02-03T11:11:16.316Z,57.20
2018-02-03T11:13:43.778Z,57.50
2018-02-03T11:16:11.228Z,58.10
2018-02-03T11:18:38.656Z,58.20
2018-02-03T11:21:06.084Z,58.60
2018-02-03T11:23:34.300Z,58.00
2018-02-03T11:26:01.744Z,57.30
2018-02-03T11:28:29.179Z,57.10
2018-02-03T11:30:57.375Z,57.10
2018-02-03T11:33:24.819Z,57.10
2018-02-03T11:35:53.028Z,56.80
2018-02-03T11:38:20.438Z,56.70
2018-02-03T11:40:48.642Z,56.10
2018-02-03T11:43:16.067Z,56.10
2018-02-03T11:45:43.504Z,55.60
2018-02-03T11:48:11.030Z,54.80
2018-02-03T11:50:38.470Z,54.60
2018-02-03T11:53:05.919Z,53.90
2018-02-03T11:55:33.338Z,54.60
2018-02-03T11:58:00.769Z,54.60
2018-02-03T12:00:28.202Z,55.30
2018-02-03T12:02:55.695Z,54.40
2018-02-03T12:05:23.127Z,55.20
2018-02-03T12:07:50.571Z,54.70
2018-02-03T12:10:18.094Z,55.00
2018-02-03T12:12:45.555Z,55.30
2018-02-03T12:15:12.979Z,55.60
2018-02-03T12:17:40.464Z,55.90
2018-02-03T12:20:07.903Z,55.80
2018-02-03T12:22:35.386Z,54.60
2018-02-03T12:25:02.790Z,53.60
2018-02-03T12:27:31.116Z,53.60
2018-02-03T12:29:58.551Z,53.30
2018-02-03T12:32:26.004Z,52.60
2018-02-03T12:34:53.434Z,52.50
2018-02-03T12:37:20.888Z,52.00
2018-02-03T12:39:48.346Z,52.20
2018-02-03T12:42:15.787Z,52.10
2018-02-03T12:44:43.281Z,52.50
2018-02-03T12:47:10.651Z,53.30
2018-02-03T12:49:38.092Z,53.40
2018-02-03T12:52:05.559Z,52.50
2018-02-03T12:54:33.018Z,52.20
2018-02-03T12:57:00.438Z,51.40
2018-02-03T12:59:27.884Z,50.20
2018-02-03T13:01:55.396Z,49.50
2018-02-03T13:04:22.843Z,48.50
2018-02-03T13:06:50.282Z,47.30
2018-02-03T13:09:17.734Z,46.90
2018-02-03T13:11:45.199Z,47.00
2018-02-03T13:14:12.646Z,46.60
2018-02-03T13:16:40.089Z,46.50
2018-02-03T13:19:07.551Z,46.90
2018-02-03T13:21:34.970Z,47.60
2018-02-03T13:24:03.223Z,49.70
2018-02-03T13:26:30.659Z,49.60
2018-02-03T13:28:58.104Z,49.80
2018-02-03T13:31:25.535Z,50.60
2018-02-03T13:33:52.974Z,51.50
2018-02-03T13:36:21.250Z,52.90
2018-02-03T13:38:49.437Z,53.70
2018-02-03T13:41:16.887Z,53.70
2018-02-03T13:43:44.322Z,53.50
2018-02-03T13:46:11.767Z,51.60
2018-02-03T13:48:39.199Z,49.80
2018-02-03T13:51:06.683Z,49.10
2018-02-03T13:53:34.111Z,48.90
2018-02-03T13:56:01.571Z,48.40
2018-02-03T13:58:29.020Z,48.00
2018-02-03T14:00:56.450Z,48.30
2018-02-03T14:03:23.893Z,48.60
2018-02-03T14:05:51.400Z,48.30
2018-02-03T14:08:18.819Z,48.50
2018-02-03T14:10:46.266Z,48.00
2018-02-03T14:13:13.687Z,47.50
2018-02-03T14:15:41.143Z,48.00
2018-02-03T14:18:08.586Z,48.10
2018-02-03T14:20:36.078Z,47.30
2018-02-03T14:23:03.519Z,46.10
2018-02-03T14:25:30.944Z,45.30
2018-02-03T14:27:58.394Z,45.30
2018-02-03T14:30:25.860Z,46.10
2018-02-03T14:32:53.267Z,46.20
2018-02-03T14:35:21.474Z,47.10
2018-02-03T14:37:48.901Z,46.70
2018-02-03T14:40:16.368Z,47.30
2018-02-03T14:42:43.783Z,48.00
2018-02-03T14:45:11.233Z,47.90
2018-02-03T14:47:38.650Z,48.10
2018-02-03T14:50:06.105Z,48.60
2018-02-03T14:52:33.553Z,49.40
2018-02-03T14:55:01.775Z,50.70
2018-02-03T14:57:29.207Z,50.60
2018-02-03T14:59:56.637Z,51.60
2018-02-03T15:02:24.085Z,52.10
2018-02-03T15:04:51.556Z,52.40
2018-02-03T15:07:19.012Z,52.40
2018-02-03T15:09:46.451Z,52.90
2018-02-03T15:12:13.895Z,53.50
2018-02-03T15:14:41.372Z,53.50
2018-02-03T15:17:08.799Z,54.10
2018-02-03T15:19:36.230Z,54.10
2018-02-03T15:22:03.659Z,54.10
2018-02-03T15:24:31.861Z,54.90
2018-02-03T15:26:59.367Z,54.80
2018-02-03T15:29:26.763Z,55.30
2018-02-03T15:31:54.221Z,55.60
2018-02-03T15:34:21.657Z,56.40
2018-02-03T15:36:49.104Z,56.30
2018-02-03T15:39:16.533Z,56.30
2018-02-03T15:41:43.960Z,57.00
2018-02-03T15:44:11.404Z,57.30
2018-02-03T15:46:38.828Z,57.60
2018-02-03T15:49:07.056Z,58.60
2018-02-03T15:51:34.504Z,58.50
2018-02-03T15:54:01.971Z,59.00
2018-02-03T15:56:29.451Z,59.30
2018-02-03T15:58:56.882Z,59.00
2018-02-03T16:01:24.328Z,58.90
2018-02-03T16:03:51.806Z,58.70
2018-02-03T16:06:19.237Z,58.70
2018-02-03T16:08:46.676Z,59.40
2018-02-03T16:11:14.110Z,59.30
2018-02-03T16:13:41.550Z,59.80
2018-02-03T16:16:08.981Z,59.80
2018-02-03T16:18:36.486Z,59.90
2018-02-03T16:21:03.871Z,59.40
2018-02-03T16:23:31.319Z,59.00
2018-02-03T16:26:04.539Z,58.80
2018-02-03T16:28:31.988Z,59.40
2018-02-03T16:30:59.463Z,58.80
2018-02-03T16:33:26.892Z,59.20
2018-02-03T16:35:54.344Z,58.40
2018-02-03T16:38:21.803Z,58.80
2018-02-03T16:40:49.232Z,58.60
2018-02-03T16:43:16.662Z,58.40
2018-02-03T16:45:44.295Z,59.20
2018-02-03T16:48:11.704Z,59.00
2018-02-03T16:50:39.947Z,59.80
2018-02-03T16:53:07.383Z,59.70
2018-02-03T16:55:34.838Z,60.60
2018-02-03T16:58:02.266Z,62.20
2018-02-03T17:00:29.700Z,63.50
2018-02-03T17:02:57.171Z,62.40
2018-02-03T17:05:24.595Z,60.40
2018-02-03T17:07:52.031Z,60.90
2018-02-03T17:10:19.496Z,61.20
2018-02-03T17:12:46.919Z,61.00
2018-02-03T17:15:14.365Z,61.90
2018-02-03T17:17:42.551Z,67.30
2018-02-03T17:20:10.027Z,67.20
2018-02-03T17:22:37.454Z,70.50
2018-02-03T17:25:04.890Z,75.90
2018-02-03T17:27:32.328Z,81.40
2018-02-03T17:29:59.806Z,81.40
2018-02-03T17:32:27.312Z,83.50
2018-02-03T17:34:54.716Z,85.20
2018-02-03T17:37:27.887Z,84.30
2018-02-03T17:39:55.323Z,83.10
2018-02-03T17:42:22.779Z,80.80
2018-02-03T17:44:50.212Z,77.90
2018-02-03T17:47:17.661Z,76.50
2018-02-03T17:49:45.091Z,75.80
2018-02-03T17:52:12.526Z,74.30
2018-02-03T17:54:39.964Z,72.40
2018-02-03T17:57:13.875Z,72.30
2018-02-03T17:59:41.325Z,72.30
2018-02-03T18:02:08.779Z,72.50
2018-02-03T18:04:36.212Z,72.90
2018-02-03T18:07:05.574Z,72.90
2018-02-03T18:09:33.026Z,73.90
2018-02-03T18:12:00.455Z,73.60
2018-02-03T18:14:27.903Z,74.10
2018-02-03T18:16:55.344Z,74.70
2018-02-03T18:19:22.778Z,74.50
2018-02-03T18:21:50.267Z,74.30
2018-02-03T18:24:17.719Z,74.10
2018-02-03T18:26:45.152Z,74.20
2018-02-03T18:29:13.371Z,74.20
2018-02-03T18:31:40.823Z,74.10
2018-02-03T18:34:08.277Z,73.70
2018-02-03T18:36:35.713Z,74.70
2018-02-03T18:39:03.155Z,75.20
2018-02-03T18:41:30.613Z,75.40
2018-02-03T18:43:58.082Z,75.50
2018-02-03T18:46:25.514Z,75.40
2018-02-03T18:48:52.943Z,75.60
2018-02-03T18:51:20.394Z,75.30
2018-02-03T18:53:47.819Z,74.80
2018-02-03T18:56:15.270Z,75.40
2018-02-03T18:58:42.702Z,74.90
2018-02-03T19:01:10.131Z,75.60
2018-02-03T19:03:37.610Z,75.00
2018-02-03T19:06:05.088Z,75.40
2018-02-03T19:08:32.536Z,75.00
2018-02-03T19:10:59.978Z,75.30
2018-02-03T19:13:27.424Z,75.50
2018-02-03T19:15:54.867Z,74.90
2018-02-03T19:18:22.305Z,74.00
2018-02-03T19:20:49.787Z,73.80
2018-02-03T19:23:17.182Z,73.30
2018-02-03T19:25:44.610Z,73.10
2018-02-03T19:28:12.235Z,72.40
2018-02-03T19:30:39.670Z,73.30
2018-02-03T19:33:07.129Z,72.90
2018-02-03T19:35:34.592Z,72.90
2018-02-03T19:38:02.028Z,72.30
2018-02-03T19:40:29.462Z,72.20
2018-02-03T19:42:56.911Z,72.80
2018-02-03T19:45:24.338Z,72.90
2018-02-03T19:47:51.790Z,72.50
2018-02-03T19:50:19.227Z,72.30
2018-02-03T19:52:46.683Z,72.20
2018-02-03T19:55:14.127Z,71.40
2018-02-03T19:57:41.576Z,71.80
2018-02-03T20:00:09.791Z,71.70
2018-02-03T20:02:37.232Z,71.60
2018-02-03T20:05:04.667Z,71.90
2018-02-03T20:07:32.100Z,72.70
2018-02-03T20:09:59.527Z,72.50
2018-02-03T20:12:27.040Z,73.20
2018-02-03T20:14:54.467Z,73.00
2018-02-03T20:17:21.915Z,73.50
2018-02-03T20:19:49.349Z,73.70
2018-02-03T20:22:16.785Z,74.40
2018-02-03T20:24:44.216Z,74.20
2018-02-03T20:27:12.435Z,75.10
2018-02-03T20:29:39.871Z,75.10
2018-02-03T20:32:07.326Z,75.00
2018-02-03T20:34:34.809Z,75.10
2018-02-03T20:37:02.244Z,75.50
2018-02-03T20:39:29.672Z,75.20
2018-02-03T20:41:57.132Z,75.20
2018-02-03T20:44:24.558Z,74.60
2018-02-03T20:46:52.096Z,74.40
2018-02-03T20:49:19.523Z,74.60
2018-02-03T20:51:46.990Z,73.90
2018-02-03T20:54:14.427Z,73.70
2018-02-03T20:56:41.867Z,73.90
2018-02-03T20:59:09.310Z,73.90
2018-02-03T21:01:36.749Z,73.50
2018-02-03T21:04:04.281Z,72.20
2018-02-03T21:06:31.782Z,72.30
2018-02-03T21:08:59.227Z,71.40
2018-02-03T21:11:26.677Z,70.80
2018-02-03T21:13:54.124Z,70.40
2018-02-03T21:16:21.564Z,70.30
2018-02-03T21:18:49.038Z,69.90
2018-02-03T21:21:16.493Z,70.70
2018-02-03T21:23:43.957Z,70.80
2018-02-03T21:26:11.392Z,70.80
2018-02-03T21:28:38.849Z,70.60
2018-02-03T21:31:06.306Z,69.70
2018-02-03T21:33:33.745Z,69.00
2018-02-03T21:36:01.187Z,69.50
2018-02-03T21:38:28.643Z,69.10
2018-02-03T21:40:56.095Z,69.10
2018-02-03T21:43:23.539Z,69.10
2018-02-03T21:45:50.973Z,69.00
2018-02-03T21:48:18.436Z,69.00
2018-02-03T21:50:45.882Z,69.30
2018-02-03T21:53:13.323Z,69.20
2018-02-03T21:55:40.795Z,68.70
2018-02-03T21:58:08.231Z,68.70
2018-02-03T22:00:35.783Z,68.90
2018-02-03T22:03:03.229Z,69.00
2018-02-03T22:05:30.655Z,69.20
2018-02-03T22:07:58.102Z,69.50
2018-02-03T22:10:25.538Z,69.70
2018-02-03T22:12:53.001Z,69.40
2018-02-03T22:15:20.436Z,69.20
2018-02-03T22:17:47.893Z,69.10
2018-02-03T22:20:15.328Z,69.40
2018-02-03T22:22:42.909Z,69.60
2018-02-03T22:25:10.335Z,69.50
2018-02-03T22:27:37.793Z,69.30
2018-02-03T22:30:06.012Z,68.50
2018-02-03T22:32:33.472Z,68.50
2018-02-03T22:35:00.939Z,68.50
2018-02-03T22:37:28.401Z,68.60
2018-02-03T22:39:55.859Z,69.50
2018-02-03T22:42:23.291Z,69.60
2018-02-03T22:44:50.924Z,69.80
2018-02-03T22:47:18.383Z,69.80
2018-02-03T22:49:45.819Z,70.80
2018-02-03T22:52:13.266Z,71.80
2018-02-03T22:54:40.702Z,72.60
2018-02-03T22:57:08.186Z,73.30
2018-02-03T22:59:35.596Z,73.50
2018-02-03T23:02:03.044Z,74.30
2018-02-03T23:04:30.501Z,75.20
2018-02-03T23:06:58.027Z,75.10
2018-02-03T23:09:25.481Z,75.50
2018-02-03T23:11:53.684Z,76.30
2018-02-03T23:14:21.149Z,76.30
2018-02-03T23:16:48.608Z,76.40
2018-02-03T23:19:16.043Z,76.30
2018-02-03T23:21:43.505Z,76.60
2018-02-03T23:24:10.964Z,77.20
2018-02-03T23:26:38.435Z,77.40
2018-02-03T23:29:06.063Z,77.80
2018-02-03T23:31:33.555Z,79.40
2018-02-03T23:34:01.018Z,79.20
2018-02-03T23:36:28.466Z,79.30
2018-02-03T23:38:55.907Z,80.30
2018-02-03T23:41:23.350Z,79.30
2018-02-03T23:43:50.803Z,80.30
2018-02-03T23:46:19.013Z,80.40
2018-02-03T23:48:46.473Z,80.30
2018-02-03T23:51:13.914Z,80.60
2018-02-03T23:53:41.354Z,80.30
2018-02-03T23:56:08.810Z,80.30
2018-02-03T23:58:36.243Z,80.20
